Time;durP1;ratioP1;P1;durP2;ratioP2;P2;SDS_P1;SDS_P2;PMS_P1;PMS_P2;Temp;Humidity;BMP_temperature;BMP_pressure;BME280_temperature;BME280_humidity;BME280_pressure;Samples;Min_cycle;Max_cycle;Signal;HPM_P1;HPM_P2
2021/01/14 00:00:27;;;;;;;24.90;14.28;;;;;;;-7.53;76.21;98820.09;1779407;80;21504;-66
2021/01/14 00:02:55;;;;;;;23.35;13.18;;;;;;;-7.52;76.30;98815.45;1779443;80;20936;-66
2021/01/14 00:05:23;;;;;;;20.55;13.22;;;;;;;-7.49;76.32;98816.70;1779466;80;21517;-66
2021/01/14 00:07:53;;;;;;;26.73;14.28;;;;;;;-7.48;76.28;98812.48;1779534;80;21505;-65
2021/01/14 00:10:22;;;;;;;28.77;15.55;;;;;;;-7.47;76.53;98819.23;1779532;80;22161;-66
2021/01/14 00:12:50;;;;;;;37.85;18.35;;;;;;;-7.44;76.70;98820.48;1779558;80;21476;-65
2021/01/14 00:15:18;;;;;;;51.20;21.65;;;;;;;-7.39;76.83;98817.52;1779447;80;21379;-65
2021/01/14 00:17:47;;;;;;;48.75;22.35;;;;;;;-7.35;76.99;98820.45;1779413;80;21588;-66
2021/01/14 00:20:19;;;;;;;44.70;21.42;;;;;;;-7.31;77.23;98814.54;1779503;80;21489;-65
2021/01/14 00:22:47;;;;;;;55.78;23.35;;;;;;;-7.24;77.31;98814.09;1779586;80;22053;-66
2021/01/14 00:25:16;;;;;;;45.15;21.45;;;;;;;-7.19;77.30;98809.40;1779442;80;21657;-66
2021/01/14 00:27:45;;;;;;;41.70;19.67;;;;;;;-7.17;77.21;98815.30;1779567;80;21395;-66
2021/01/14 00:30:18;;;;;;;33.55;16.70;;;;;;;-7.14;77.22;98822.03;1779434;80;21701;-66
2021/01/14 00:32:46;;;;;;;37.67;17.50;;;;;;;-7.13;77.40;98815.70;1779478;80;21069;-66
2021/01/14 00:35:15;;;;;;;40.35;19.07;;;;;;;-7.10;77.51;98812.31;1779534;80;22319;-65
2021/01/14 00:37:53;;;;;;;28.87;15.93;;;;;;;-7.05;77.50;98808.08;1779523;80;21577;-66
2021/01/14 00:40:30;;;;;;;32.88;15.25;;;;;;;-7.01;77.56;98807.64;1779516;80;21538;-65
2021/01/14 00:43:05;;;;;;;31.05;15.48;;;;;;;-6.95;77.60;98806.34;1779418;80;21580;-66
2021/01/14 00:45:33;;;;;;;28.75;15.58;;;;;;;-6.92;77.51;98806.33;1766408;80;20944;-65
2021/01/14 00:48:05;;;;;;;33.85;16.82;;;;;;;-6.90;77.56;98809.69;1745716;81;22289;-66
2021/01/14 00:50:34;;;;;;;47.00;19.92;;;;;;;-6.86;77.69;98808.83;1745655;81;21564;-67
2021/01/14 00:53:03;;;;;;;41.58;19.40;;;;;;;-6.82;77.73;98799.09;1745665;81;20981;-66
2021/01/14 00:55:33;;;;;;;38.67;19.07;;;;;;;-6.78;77.79;98797.77;1745752;82;20992;-65
2021/01/14 00:58:02;;;;;;;52.85;23.30;;;;;;;-6.73;77.67;98801.12;1745683;82;21019;-66
2021/01/14 01:00:31;;;;;;;45.83;20.82;;;;;;;-6.67;77.49;98803.20;1745783;82;22216;-66
2021/01/14 01:03:01;;;;;;;50.33;22.73;;;;;;;-6.66;77.23;98795.59;1745725;82;20993;-66
2021/01/14 01:05:29;;;;;;;46.92;21.07;;;;;;;-6.65;77.01;98792.64;1745738;81;21418;-66
2021/01/14 01:07:59;;;;;;;30.80;15.58;;;;;;;-6.67;76.79;98793.91;1745597;82;21470;-66
2021/01/14 01:10:28;;;;;;;33.92;15.88;;;;;;;-6.71;76.72;98792.25;1745732;81;21561;-66
2021/01/14 01:12:57;;;;;;;27.27;14.98;;;;;;;-6.75;76.68;98789.32;1745650;82;21379;-66
2021/01/14 01:15:27;;;;;;;27.35;15.45;;;;;;;-6.77;76.74;98786.80;1745702;82;21102;-66
2021/01/14 01:17:56;;;;;;;25.12;13.85;;;;;;;-6.80;76.67;98793.14;1745644;82;21473;-66
2021/01/14 01:20:26;;;;;;;26.48;15.03;;;;;;;-6.83;76.54;98802.48;1745632;82;21568;-67
2021/01/14 01:22:56;;;;;;;27.93;15.18;;;;;;;-6.89;76.37;98808.84;1745676;81;20961;-66
2021/01/14 01:25:25;;;;;;;25.25;14.33;;;;;;;-6.95;76.35;98816.46;1745682;82;21147;-68
2021/01/14 01:27:53;;;;;;;24.65;14.68;;;;;;;-7.01;76.36;98817.76;1745700;82;21510;-66
2021/01/14 01:30:22;;;;;;;35.70;18.05;;;;;;;-7.07;76.48;98808.08;1745626;81;21509;-66
2021/01/14 01:32:50;;;;;;;36.88;17.70;;;;;;;-7.11;76.49;98812.73;1745727;81;21525;-65
2021/01/14 01:35:19;;;;;;;37.88;19.17;;;;;;;-7.15;76.37;98818.66;1745770;82;21537;-66
2021/01/14 01:37:47;;;;;;;38.02;19.05;;;;;;;-7.20;76.40;98823.34;1745659;82;22238;-66
2021/01/14 01:40:15;;;;;;;40.58;20.50;;;;;;;-7.23;76.44;98821.67;1745646;81;21505;-66
2021/01/14 01:42:44;;;;;;;39.78;19.15;;;;;;;-7.26;76.32;98833.06;1745570;82;21565;-66
2021/01/14 01:45:13;;;;;;;36.95;18.32;;;;;;;-7.33;76.15;98825.50;1745508;80;21592;-65
2021/01/14 01:47:41;;;;;;;37.90;17.70;;;;;;;-7.41;76.40;98815.41;1745782;81;21398;-65
2021/01/14 01:50:11;;;;;;;28.80;15.60;;;;;;;-7.46;76.61;98814.16;1745754;81;22090;-65
2021/01/14 01:52:39;;;;;;;31.62;16.80;;;;;;;-7.48;76.67;98817.55;1745554;82;20975;-65
2021/01/14 01:55:09;;;;;;;26.70;14.80;;;;;;;-7.51;76.63;98824.72;1745603;82;21620;-65
2021/01/14 01:57:37;;;;;;;33.50;17.37;;;;;;;-7.58;76.54;98834.42;1745600;82;21079;-65
2021/01/14 02:00:07;;;;;;;32.90;18.25;;;;;;;-7.64;76.54;98826.88;1716786;82;21635;-65
2021/01/14 02:02:35;;;;;;;31.77;18.02;;;;;;;-7.70;76.74;98823.11;1745650;82;21265;-65
2021/01/14 02:05:05;;;;;;;32.00;19.05;;;;;;;-7.73;76.88;98823.11;1745583;82;21565;-65
2021/01/14 02:08:13;;;;;;;30.70;17.67;;;;;;;-7.77;76.96;98821.44;1745646;82;20960;-65
2021/01/14 02:10:53;;;;;;;39.48;22.25;;;;;;;-7.81;76.97;98821.86;1745616;82;21419;-66
2021/01/14 02:13:29;;;;;;;48.65;26.42;;;;;;;-7.91;76.96;98820.19;1745665;81;20916;-66
2021/01/14 02:15:59;;;;;;;43.80;24.30;;;;;;;-7.96;77.14;98829.88;1745654;82;22236;-65
2021/01/14 02:18:28;;;;;;;47.13;24.65;;;;;;;-7.98;77.19;98831.56;1745553;82;21585;-65
2021/01/14 02:21:02;;;;;;;34.05;19.65;;;;;;;-8.03;77.16;98832.02;1745634;82;20984;-66
2021/01/14 02:24:11;;;;;;;35.48;19.92;;;;;;;-8.08;77.18;98828.23;1745564;81;20951;-66
2021/01/14 02:26:40;;;;;;;35.90;19.15;;;;;;;-8.11;77.15;98830.77;1745636;81;21418;-65
2021/01/14 02:29:08;;;;;;;31.95;17.75;;;;;;;-8.17;77.13;98837.92;1745647;82;22158;-68
2021/01/14 02:31:37;;;;;;;28.10;16.50;;;;;;;-8.22;77.27;98838.34;1745571;82;21609;-66
2021/01/14 02:34:05;;;;;;;28.17;16.48;;;;;;;-8.28;77.31;98840.86;1745607;82;21513;-66
2021/01/14 02:36:35;;;;;;;32.93;17.60;;;;;;;-8.31;77.53;98834.55;1745544;82;21608;-66
2021/01/14 02:39:04;;;;;;;28.62;15.40;;;;;;;-8.33;77.75;98833.73;1745632;82;21589;-66
2021/01/14 02:41:32;;;;;;;27.13;15.88;;;;;;;-8.34;77.80;98835.84;1745630;82;21193;-66
2021/01/14 02:44:00;;;;;;;27.90;15.10;;;;;;;-8.37;77.76;98838.78;1745540;81;21849;-66
2021/01/14 02:46:29;;;;;;;27.42;15.70;;;;;;;-8.40;77.90;98838.39;1745525;80;21540;-66
2021/01/14 02:49:11;;;;;;;25.92;15.55;;;;;;;-8.40;77.85;98833.77;1745582;82;21015;-66
2021/01/14 02:51:42;;;;;;;24.50;13.98;;;;;;;-8.44;77.75;98834.18;1745681;82;21581;-66
2021/01/14 02:54:11;;;;;;;23.00;14.10;;;;;;;-8.49;77.96;98834.59;1745639;82;21194;-66
2021/01/14 02:56:40;;;;;;;22.95;14.93;;;;;;;-8.49;78.19;98838.38;1745584;82;21047;-68
2021/01/14 02:59:13;;;;;;;27.45;15.28;;;;;;;-8.50;78.31;98845.53;1745593;81;21533;-65
2021/01/14 03:01:40;;;;;;;28.50;16.35;;;;;;;-8.51;78.33;98841.32;1745450;82;21572;-67
2021/01/14 03:04:11;;;;;;;24.07;15.23;;;;;;;-8.54;78.45;98841.31;1745581;82;21549;-66
2021/01/14 03:06:39;;;;;;;26.85;16.40;;;;;;;-8.54;78.48;98843.84;1745639;82;22332;-69
2021/01/14 03:09:08;;;;;;;27.13;16.57;;;;;;;-8.54;78.54;98838.80;1745544;82;21015;-68
2021/01/14 03:11:36;;;;;;;29.82;18.30;;;;;;;-8.53;78.73;98832.91;1745698;82;21597;-69
2021/01/14 03:14:04;;;;;;;31.35;17.05;;;;;;;-8.49;78.84;98837.13;1745691;81;21521;-66
2021/01/14 03:16:39;;;;;;;28.90;17.67;;;;;;;-8.48;78.87;98840.91;1745599;82;21371;-67
2021/01/14 03:19:08;;;;;;;31.33;16.73;;;;;;;-8.48;78.68;98851.00;1745599;81;21192;-65
2021/01/14 03:21:37;;;;;;;26.50;16.45;;;;;;;-8.49;78.56;98848.48;1745516;82;21054;-65
2021/01/14 03:24:06;;;;;;;33.13;17.92;;;;;;;-8.51;78.40;98852.68;1745661;82;21522;-65
2021/01/14 03:26:36;;;;;;;32.93;18.10;;;;;;;-8.55;78.19;98859.41;1745773;81;20948;-64
2021/01/14 03:29:04;;;;;;;29.87;17.37;;;;;;;-8.60;78.13;98861.08;1745751;82;21509;-65
2021/01/14 03:31:32;;;;;;;;;;;;;;;-8.64;78.09;98863.59;1748370;82;22157;-65
2021/01/14 03:34:00;;;;;;;;;;;;;;;-8.67;78.28;98854.75;1748334;82;21001;-66
2021/01/14 03:36:32;;;;;;;;;;;;;;;-8.68;78.42;98848.02;1748323;82;20138;-66
2021/01/14 03:38:58;;;;;;;;;;;;;;;-8.67;78.65;98851.81;1748329;82;20458;-66
2021/01/14 03:41:26;;;;;;;;;;;;;;;-8.67;78.63;98856.86;1748362;82;20561;-66
2021/01/14 03:43:54;;;;;;;;;;;;;;;-8.66;78.60;98857.70;1748363;82;22320;-66
2021/01/14 03:46:22;;;;;;;;;;;;;;;-8.64;78.67;98863.59;1748257;80;20480;-65
2021/01/14 03:48:50;;;;;;;;;;;;;;;-8.61;78.76;98858.55;1748398;82;20396;-65
2021/01/14 03:51:21;;;;;;;;;;;;;;;-8.58;78.71;98856.88;1748347;81;20488;-66
2021/01/14 03:53:50;;;;;;;;;;;;;;;-8.54;78.48;98860.25;1748346;81;20138;-65
2021/01/14 03:56:19;;;;;;;;;;;;;;;-8.54;78.36;98852.25;1748301;81;21981;-65
2021/01/14 03:58:46;;;;;;;;;;;;;;;-8.51;78.37;98858.98;1748254;82;20562;-65
2021/01/14 04:01:15;;;;;;;95.10;37.90;;;;;;;-8.50;78.38;98858.15;1747912;81;20392;-66
2021/01/14 04:03:43;;;;;;;82.72;31.97;;;;;;;-8.49;78.44;98857.31;1745658;82;21510;-66
2021/01/14 04:06:12;;;;;;;49.50;24.23;;;;;;;-8.48;78.52;98852.27;1745734;82;21517;-66
2021/01/14 04:08:41;;;;;;;70.40;31.93;;;;;;;-8.46;78.37;98848.48;1745650;82;22340;-66
2021/01/14 04:11:12;;;;;;;64.03;27.77;;;;;;;-8.45;78.24;98846.38;1745669;82;21581;-65
2021/01/14 04:13:41;;;;;;;48.65;24.35;;;;;;;-8.46;78.20;98848.06;1745844;82;20944;-65
2021/01/14 04:16:14;;;;;;;52.60;24.00;;;;;;;-8.52;77.91;98855.63;1747800;81;20968;-64
2021/01/14 04:18:42;;;;;;;;;;;;;;;-8.57;77.70;98853.93;1748292;81;21509;-65
2021/01/14 04:21:15;;;;;;;;;;;;;;;-8.63;77.75;98858.97;1748399;82;22234;-65
2021/01/14 04:23:43;;;;;;;;;;;;;;;-8.66;78.04;98862.74;1748289;82;20536;-65
2021/01/14 04:26:11;;;;;;;;;;;;;;;-8.69;78.34;98868.62;1748321;81;20473;-65
2021/01/14 04:28:40;;;;;;;;;;;;;;;-8.70;78.28;98856.00;1748403;82;20628;-66
2021/01/14 04:31:08;;;;;;;;;;;;;;;-8.71;78.39;98855.16;1748342;81;20404;-65
2021/01/14 04:33:36;;;;;;;;;;;;;;;-8.71;78.30;98857.69;1748316;82;21963;-65
2021/01/14 04:36:05;;;;;;;;;;;;;;;-8.70;78.17;98859.79;1748252;82;20158;-66
2021/01/14 04:38:33;;;;;;;;;;;;;;;-8.69;78.11;98856.43;1748290;82;20138;-66
2021/01/14 04:41:04;;;;;;;;;;;;;;;-8.69;78.22;98860.21;1748302;82;20763;-66
2021/01/14 04:43:33;;;;;;;;;;;;;;;-8.67;77.94;98864.42;1748380;82;20483;-69
2021/01/14 04:46:04;;;;;;;;;;;;;;;-8.69;77.37;98857.27;1748270;80;21190;-67
2021/01/14 04:48:34;;;;;;;;;;;;;;;-8.78;76.78;98854.30;1748315;82;20529;-66
2021/01/14 04:51:07;;;;;;;;;;;;;;;-8.85;76.73;98869.45;1748439;82;20408;-67
2021/01/14 04:53:36;;;;;;;;;;;;;;;-8.93;76.93;98872.36;1748319;81;20630;-65
2021/01/14 04:56:06;;;;;;;;;;;;;;;-8.98;76.89;98870.24;1748337;81;20154;-65
2021/01/14 04:58:35;;;;;;;;;;;;;;;-9.00;76.91;98874.44;1748263;82;21268;-65
2021/01/14 05:01:10;;;;;;;;;;;;;;;-9.04;76.70;98876.11;1748225;82;20118;-66
2021/01/14 05:03:39;;;;;;;;;;;;;;;-9.06;76.51;98881.98;1748309;82;20154;-66
2021/01/14 05:06:07;;;;;;;;;;;;;;;-9.12;76.20;98882.80;1748258;81;20162;-67
2021/01/14 05:08:35;;;;;;;;;;;;;;;-9.16;76.18;98882.36;1719374;82;20476;-66
2021/01/14 05:11:03;;;;;;;;;;;;;;;-9.22;75.95;98882.36;1748356;82;22084;-66
2021/01/14 05:13:32;;;;;;;;;;;;;;;-9.26;75.79;98885.70;1748256;82;20556;-67
2021/01/14 05:16:00;;;;;;;;;;;;;;;-9.34;75.36;98883.55;1748286;82;20428;-66
2021/01/14 05:18:28;;;;;;;;;;;;;;;-9.42;75.32;98885.62;1748216;82;20660;-67
2021/01/14 05:20:58;;;;;;;;;;;;;;;-9.48;75.44;98888.10;1748303;81;20495;-66
2021/01/14 05:23:31;;;;;;;;;;;;;;;-9.52;75.73;98891.44;1748255;82;23347;-66
2021/01/14 05:25:59;;;;;;;;;;;;;;;-9.56;76.07;98894.77;1748200;82;20122;-66
2021/01/14 05:28:29;;;;;;;;;;;;;;;-9.56;76.32;98888.89;1748306;81;20479;-67
2021/01/14 05:31:14;;;;;;;;;;;;;;;-9.56;76.60;98890.99;1748338;82;20555;-67
2021/01/14 05:33:42;;;;;;;;;;;;;;;-9.55;76.92;98905.27;1716346;82;20396;-67
2021/01/14 05:36:10;;;;;;;;;;;;;;;-9.54;77.28;98904.44;1748274;81;21433;-67
2021/01/14 05:38:39;;;;;;;;;;;;;;;-9.53;77.61;98902.77;1748150;82;20118;-66
2021/01/14 05:41:11;;;;;;;;;;;;;;;-9.52;77.96;98897.73;1748276;82;20504;-66
2021/01/14 05:43:54;;;;;;;;;;;;;;;-9.50;78.16;98901.11;1748203;81;20594;-66
2021/01/14 05:46:25;;;;;;;;;;;;;;;-9.50;78.29;98904.89;1748186;80;20496;-67
2021/01/14 05:48:54;;;;;;;;;;;;;;;-9.47;78.43;98899.02;1748268;82;21317;-67
2021/01/14 05:51:26;;;;;;;;;;;;;;;-9.42;78.53;98898.63;1748097;82;20171;-68
2021/01/14 05:53:55;;;;;;;;;;;;;;;-9.36;78.60;98891.53;1748090;81;20134;-69
2021/01/14 05:56:38;;;;;;;;;;;;;;;-9.33;78.85;98902.88;1757881;78;20194;-68
2021/01/14 05:59:09;;;;;;;;;;;;;;;-9.30;79.42;98911.30;1784901;80;20230;-68
2021/01/14 06:01:54;;;;;;;;;;;;;;;-9.25;79.68;98917.22;1771887;78;21358;-69
2021/01/14 06:04:27;;;;;;;;;;;;;;;-9.24;79.18;98911.76;1768675;80;21346;-65
2021/01/14 06:07:05;;;;;;;;;;;;;;;-9.24;79.21;98911.76;1782363;78;20141;-67
2021/01/14 06:09:42;;;;;;;;;;;;;;;-9.26;79.46;98918.05;1778910;78;21180;-67
2021/01/14 06:12:11;;;;;;;;;;;;;;;-9.22;79.75;98915.12;1783166;78;20135;-68
2021/01/14 06:14:41;;;;;;;;;;;;;;;-9.16;79.64;98913.88;1764064;80;22220;-66
2021/01/14 06:17:10;;;;;;;;;;;;;;;-9.11;79.55;98914.31;1752616;80;20892;-67
2021/01/14 06:19:38;;;;;;;;;;;;;;;-9.07;79.52;98909.29;1777648;78;20127;-66
2021/01/14 06:22:07;;;;;;;;;;;;;;;-9.03;79.61;98912.25;1775462;79;20680;-68
2021/01/14 06:24:37;;;;;;;;;;;;;;;-8.96;79.96;98914.80;1780893;79;20560;-65
2021/01/14 06:27:09;;;;;;;;;;;;;;;-8.85;80.06;98918.64;1774497;80;22312;-68
2021/01/14 06:29:41;;;;;;;;;;;;;;;-8.77;79.86;98914.43;1776663;80;20520;-67
2021/01/14 06:32:13;;;;;;;;;;;;;;;-8.70;80.03;98917.81;1787000;80;20174;-69
2021/01/14 06:34:42;;;;;;;;;;;;;;;-8.64;80.15;98924.14;1782281;78;20151;-68
2021/01/14 06:37:12;;;;;;;;;;;;;;;-8.58;79.84;98924.17;1800313;78;20471;-67
2021/01/14 06:39:44;;;;;;;;;;;;;;;-8.53;79.81;98926.28;1821636;78;21257;-67
2021/01/14 06:42:21;;;;;;;;;;;;;;;-8.46;79.89;98925.46;1801218;78;20847;-68
2021/01/14 06:45:03;;;;;;;;;;;;;;;-8.39;79.98;98928.81;1763463;78;20542;-66
2021/01/14 06:47:37;;;;;;;;;;;;;;;-8.30;80.20;98930.06;1779011;79;20924;-66
2021/01/14 06:50:20;;;;;;;152.35;75.45;;;;;;;-8.22;80.09;98938.50;1787969;79;20152;-67
2021/01/14 06:53:04;;;;;;;122.55;61.08;;;;;;;-8.16;80.07;98931.77;1789588;79;21192;-67
2021/01/14 06:55:42;;;;;;;144.62;68.62;;;;;;;-8.10;79.97;98930.52;1770074;79;22133;-69
2021/01/14 06:58:20;;;;;;;124.58;57.67;;;;;;;-8.04;80.17;98938.52;1782800;79;21033;-68
2021/01/14 07:00:50;;;;;;;128.47;61.65;;;;;;;-7.98;80.29;98948.60;1801408;79;22300;-70
2021/01/14 07:03:23;;;;;;;106.65;52.53;;;;;;;-7.92;80.15;98948.61;1789467;79;21567;-65
2021/01/14 07:05:59;;;;;;;94.92;49.13;;;;;;;-7.87;80.11;98944.41;1787130;78;21330;-68
2021/01/14 07:08:56;;;;;;;71.50;36.83;;;;;;;-7.81;80.26;98944.41;1778929;79;21122;-67
2021/01/14 07:11:24;;;;;;;52.10;29.30;;;;;;;-7.74;80.46;98938.52;1803352;79;21571;-65
2021/01/14 07:13:57;;;;;;;54.83;26.57;;;;;;;-7.64;80.58;98935.56;1807808;79;21543;-68
2021/01/14 07:16:28;;;;;;;43.70;25.00;;;;;;;-7.55;80.60;98938.05;1793589;79;21130;-67
2021/01/14 07:18:57;;;;;;;34.85;21.20;;;;;;;-7.47;80.37;98936.36;1790219;79;21341;-66
2021/01/14 07:21:45;;;;;;;35.55;20.65;;;;;;;-7.37;80.50;98942.67;1789149;79;21666;-67
2021/01/14 07:24:31;;;;;;;29.75;18.42;;;;;;;-7.29;80.27;98939.70;1776055;80;21721;-68
2021/01/14 07:27:00;;;;;;;30.52;16.40;;;;;;;-7.19;80.02;98937.55;1777419;80;21056;-68
2021/01/14 07:29:33;;;;;;;29.52;17.23;;;;;;;-7.12;80.08;98932.89;1778034;80;21060;-67
2021/01/14 07:32:02;;;;;;;32.93;19.60;;;;;;;-7.03;79.88;98930.34;1778789;80;21963;-68
2021/01/14 07:34:44;;;;;;;31.45;17.37;;;;;;;-6.96;79.77;98925.69;1778096;80;21071;-69
2021/01/14 07:37:18;;;;;;;28.02;15.88;;;;;;;-6.87;79.69;98926.92;1778562;80;21666;-66
2021/01/14 07:39:51;;;;;;;32.00;17.73;;;;;;;-6.78;79.42;98934.44;1778392;80;20981;-66
2021/01/14 07:42:30;;;;;;;25.03;15.50;;;;;;;-6.73;79.15;98935.27;1778495;80;21040;-66
2021/01/14 07:45:04;;;;;;;23.20;14.68;;;;;;;-6.68;78.85;98945.80;1794773;79;22158;-66
2021/01/14 07:47:37;;;;;;;47.45;26.45;;;;;;;-6.66;78.74;98952.54;1780016;80;21634;-68
2021/01/14 07:50:23;;;;;;;32.65;19.32;;;;;;;-6.64;78.55;98952.11;1786633;80;21032;-67
2021/01/14 07:52:58;;;;;;;47.25;21.15;;;;;;;-6.63;78.51;98957.59;1786757;80;21076;-67
2021/01/14 07:55:34;;;;;;;39.08;20.60;;;;;;;-6.54;78.28;98961.77;1889356;76;26549;-67
2021/01/14 07:58:10;;;;;;;115.65;36.77;;;;;;;-6.54;78.10;98954.18;1860552;77;21546;-66
2021/01/14 08:00:41;;;;;;;168.75;53.48;;;;;;;-6.52;78.25;98955.02;1859728;77;21423;-67
2021/01/14 08:03:14;;;;;;;176.42;54.40;;;;;;;-6.44;78.38;98957.09;1848709;77;21575;-68
2021/01/14 08:05:56;;;;;;;50.58;24.45;;;;;;;-6.37;78.04;98961.67;1855026;76;21009;-67
2021/01/14 08:08:38;;;;;;;49.75;24.43;;;;;;;-6.31;78.04;98960.38;1856587;77;21041;-66
2021/01/14 08:11:20;;;;;;;60.90;25.02;;;;;;;-6.22;78.02;98953.56;1857161;77;21000;-70
2021/01/14 08:14:13;;;;;;;53.48;26.85;;;;;;;-6.13;77.66;98961.11;1860935;76;21191;-69
2021/01/14 08:16:46;;;;;;;68.65;34.13;;;;;;;-6.05;77.81;98962.33;1781122;79;21059;-67
2021/01/14 08:19:33;;;;;;;137.30;51.18;;;;;;;-5.96;77.72;98974.08;1813447;79;21068;-67
2021/01/14 08:22:06;;;;;;;111.40;49.75;;;;;;;-5.92;77.46;98970.67;1769564;80;21665;-66
2021/01/14 08:24:53;;;;;;;54.65;30.65;;;;;;;-5.85;77.32;98981.15;1785191;79;21060;-68
2021/01/14 08:27:33;;;;;;;79.82;37.17;;;;;;;-5.81;76.91;98981.13;1797505;78;22299;-66
2021/01/14 08:30:15;;;;;;;125.35;48.90;;;;;;;-5.85;76.98;98988.33;1792526;79;21019;-68
2021/01/14 08:32:52;;;;;;;85.45;42.25;;;;;;;-5.84;77.08;98992.97;1817911;78;20970;-67
2021/01/14 08:35:34;;;;;;;69.53;33.70;;;;;;;-5.83;77.23;98994.66;1799470;79;20985;-69
2021/01/14 08:38:13;;;;;;;63.98;31.00;;;;;;;-5.80;77.44;98985.77;1780578;79;21040;-67
2021/01/14 08:40:43;;;;;;;32.67;18.98;;;;;;;-5.79;77.01;98983.64;1808802;79;21648;-67
2021/01/14 08:43:17;;;;;;;25.17;16.10;;;;;;;-5.80;77.42;98988.30;1813789;79;20991;-67
2021/01/14 08:45:49;;;;;;;24.02;15.70;;;;;;;-5.76;77.89;98988.69;1813096;79;21622;-66
2021/01/14 08:48:25;;;;;;;31.62;16.60;;;;;;;-5.74;77.81;98985.30;1812327;78;21058;-68
2021/01/14 08:51:03;;;;;;;21.50;13.65;;;;;;;-5.69;78.12;98990.77;1811427;78;20935;-68
2021/01/14 08:53:38;;;;;;;18.17;11.12;;;;;;;-5.62;78.04;98989.87;1813301;78;21205;-67
2021/01/14 08:56:17;;;;;;;22.85;13.55;;;;;;;-5.57;77.50;98996.98;1802883;79;21063;-67
2021/01/14 08:58:48;;;;;;;23.60;15.20;;;;;;;-5.58;76.28;99008.81;1802943;79;21601;-65
2021/01/14 09:01:25;;;;;;;32.93;18.07;;;;;;;-5.63;76.75;99004.66;1802781;79;21002;-67
2021/01/14 09:06:38;;;;;;;48.75;25.37;;;;;;;-5.61;77.90;99005.07;1658655;86;22002;-68
2021/01/14 09:09:15;;;;;;;46.80;22.20;;;;;;;-5.54;77.64;99003.30;1702328;83;20972;-69
2021/01/14 09:11:46;;;;;;;29.12;17.05;;;;;;;-5.46;77.15;98995.20;1693305;83;21047;-67
2021/01/14 09:14:16;;;;;;;26.75;15.83;;;;;;;-5.48;76.45;98995.64;1683279;83;22152;-67
2021/01/14 09:16:49;;;;;;;21.45;14.63;;;;;;;-5.50;76.74;98991.84;1694773;84;21064;-67
2021/01/14 09:19:19;;;;;;;27.42;16.85;;;;;;;-5.44;76.85;98996.03;1687121;84;21621;-67
2021/01/14 09:21:48;;;;;;;28.65;16.42;;;;;;;-5.41;76.55;98989.67;1732764;82;21682;-65
2021/01/14 09:24:18;;;;;;;37.58;20.85;;;;;;;-5.37;76.58;98984.98;1694892;84;21046;-67
2021/01/14 09:26:56;;;;;;;39.88;22.52;;;;;;;-5.31;76.06;98991.70;1691878;84;21713;-66
2021/01/14 09:29:29;;;;;;;29.40;17.12;;;;;;;-5.27;76.19;98998.00;1689670;84;21614;-68
2021/01/14 09:32:13;;;;;;;28.02;17.37;;;;;;;-5.19;76.06;98994.94;1692575;82;21374;-71
2021/01/14 09:34:42;;;;;;;34.95;20.27;;;;;;;-5.09;75.98;98991.89;1729374;82;21021;-65
2021/01/14 09:37:18;;;;;;;28.35;16.27;;;;;;;-4.98;75.78;98992.63;1733693;82;20997;-66
2021/01/14 09:39:46;;;;;;;23.65;15.48;;;;;;;-4.87;75.37;98996.33;1735002;82;21005;-71
2021/01/14 09:42:19;;;;;;;28.57;16.00;;;;;;;-4.84;75.11;98995.03;1730639;82;21017;-69
2021/01/14 09:44:48;;;;;;;22.58;13.65;;;;;;;-4.84;75.54;98989.95;1680134;84;22571;-68
2021/01/14 09:47:18;;;;;;;21.02;13.32;;;;;;;-4.79;75.28;98999.17;1631013;85;21053;-66
2021/01/14 09:49:46;;;;;;;20.85;13.28;;;;;;;-4.77;74.71;98994.92;1689636;82;21002;-66
2021/01/14 09:52:19;;;;;;;28.70;15.20;;;;;;;-4.81;74.60;98996.27;1691600;84;22231;-66
2021/01/14 09:54:48;;;;;;;20.40;12.78;;;;;;;-4.80;74.98;98997.95;1694585;84;21087;-67
2021/01/14 09:57:16;;;;;;;27.32;15.85;;;;;;;-4.81;74.49;98986.11;1692933;84;21227;-67
2021/01/14 09:59:44;;;;;;;28.02;16.02;;;;;;;-4.85;74.70;98985.73;1695550;84;22082;-65
2021/01/14 10:02:26;;;;;;;22.52;13.43;;;;;;;-4.81;75.04;98992.45;1727833;83;21024;-64
2021/01/14 10:04:58;;;;;;;19.12;13.10;;;;;;;-4.73;75.42;98987.68;1675680;82;21073;-64
2021/01/14 10:07:27;;;;;;;45.05;22.98;;;;;;;-4.65;74.65;98991.83;1744447;81;21020;-64
2021/01/14 10:09:57;;;;;;;45.23;22.27;;;;;;;-4.67;74.93;98989.31;1757508;81;21020;-63
2021/01/14 10:12:25;;;;;;;17.87;12.37;;;;;;;-4.61;75.17;98988.41;1752076;81;22247;-63
2021/01/14 10:15:13;;;;;;;40.43;24.85;;;;;;;-4.58;74.49;98987.09;1731306;81;21575;-69
2021/01/14 10:17:42;;;;;;;25.52;15.78;;;;;;;-4.60;74.11;98984.58;1731891;82;21018;-64
2021/01/14 10:20:12;;;;;;;16.93;12.18;;;;;;;-4.62;74.14;98982.91;1731117;82;21651;-67
2021/01/14 10:22:52;;;;;;;20.52;12.75;;;;;;;-4.63;73.47;98976.98;1732046;82;21892;-63
2021/01/14 10:25:21;;;;;;;18.32;12.60;;;;;;;-4.65;73.14;98984.22;1731492;82;21058;-64
2021/01/14 10:28:11;;;;;;;19.70;13.62;;;;;;;-4.67;72.95;98983.39;1731899;82;21564;-64
2021/01/14 10:30:42;;;;;;;24.52;15.93;;;;;;;-4.69;72.89;98983.41;1731857;82;21650;-64
2021/01/14 10:33:11;;;;;;;19.23;13.85;;;;;;;-4.71;73.07;98973.27;1731578;82;21049;-66
2021/01/14 10:35:40;;;;;;;22.45;13.45;;;;;;;-4.70;72.78;98971.56;1748569;81;21928;-70
2021/01/14 10:38:11;;;;;;;26.85;15.90;;;;;;;-4.71;72.96;98961.84;1750729;81;21683;-67
2021/01/14 10:40:51;;;;;;;36.23;19.10;;;;;;;-4.69;73.07;98963.09;1708717;81;21022;-67
2021/01/14 10:43:30;;;;;;;21.97;13.55;;;;;;;-4.71;73.10;98961.00;1701445;82;21710;-70
2021/01/14 10:45:59;;;;;;;22.80;13.85;;;;;;;-4.69;73.33;98968.17;1731811;82;21002;-69
2021/01/14 10:48:42;;;;;;;23.18;12.93;;;;;;;-4.67;73.13;98961.80;1731821;81;22148;-71
2021/01/14 10:51:11;;;;;;;21.35;13.28;;;;;;;-4.65;73.17;98966.44;1731264;82;20994;-66
2021/01/14 10:53:41;;;;;;;21.02;13.15;;;;;;;-4.62;73.19;98965.13;1731510;82;21177;-69
2021/01/14 10:56:19;;;;;;;25.72;14.75;;;;;;;-4.60;72.73;98968.06;1731043;82;21339;-73
2021/01/14 10:58:57;;;;;;;23.70;13.95;;;;;;;-4.59;72.95;98960.86;1731510;82;21581;-73
2021/01/14 11:01:25;;;;;;;32.78;17.25;;;;;;;-4.54;73.00;98955.29;1731416;81;22021;-67
2021/01/14 11:03:55;;;;;;;33.08;22.52;;;;;;;-4.46;73.01;98955.20;1730783;82;21444;-68
2021/01/14 11:06:29;;;;;;;24.20;14.87;;;;;;;-4.37;72.72;98957.16;1731379;82;21556;-74
2021/01/14 11:09:01;;;;;;;37.00;17.60;;;;;;;-4.31;72.84;98950.31;1731894;81;21005;-66
2021/01/14 11:11:30;;;;;;;21.42;13.40;;;;;;;-4.23;72.77;98945.97;1735653;81;21032;-70
2021/01/14 11:13:59;;;;;;;22.20;12.25;;;;;;;-4.18;71.87;98945.48;1699466;82;21385;-69
2021/01/14 11:16:27;;;;;;;19.25;11.97;;;;;;;-4.20;71.43;98949.31;1699070;83;21092;-66
2021/01/14 11:18:58;;;;;;;21.90;12.60;;;;;;;-4.21;71.59;98948.91;1699161;84;20984;-66
2021/01/14 11:21:29;;;;;;;17.02;11.22;;;;;;;-4.22;71.30;98947.22;1699184;84;21095;-65
2021/01/14 11:24:03;;;;;;;18.32;12.23;;;;;;;-4.25;71.19;98947.27;1698713;84;20988;-66
2021/01/14 11:26:28;;;;;;;17.25;12.07;;;;;;;-4.27;71.07;98944.33;1698702;84;21232;-66
2021/01/14 11:28:57;;;;;;;16.90;10.63;;;;;;;-4.27;71.38;98940.52;1699165;83;21055;-66
2021/01/14 11:31:26;;;;;;;16.60;11.53;;;;;;;-4.25;70.89;98940.91;1698483;84;21656;-65
2021/01/14 11:33:55;;;;;;;18.00;11.65;;;;;;;-4.25;70.59;98938.38;1697789;84;21610;-66
2021/01/14 11:36:25;;;;;;;21.27;10.88;;;;;;;-4.27;70.93;98936.70;1699018;84;21574;-69
2021/01/14 11:38:53;;;;;;;15.58;10.60;;;;;;;-4.27;71.06;98935.01;1699194;83;21598;-66
2021/01/14 11:41:22;;;;;;;18.17;11.70;;;;;;;-4.25;71.29;98927.36;1699006;83;21672;-65
2021/01/14 11:43:51;;;;;;;17.10;10.35;;;;;;;-4.20;71.68;98937.03;1698432;83;21741;-68
2021/01/14 11:46:22;;;;;;;18.90;11.78;;;;;;;-4.13;71.69;98946.26;1698762;84;21712;-66
2021/01/14 11:48:49;;;;;;;17.10;12.15;;;;;;;-4.15;71.30;98932.30;1698772;84;21180;-66
2021/01/14 11:51:18;;;;;;;17.75;10.58;;;;;;;-4.15;71.77;98939.92;1699104;84;22162;-69
2021/01/14 11:53:47;;;;;;;16.30;11.08;;;;;;;-4.13;71.78;98944.98;1698760;83;22333;-67
2021/01/14 11:56:15;;;;;;;15.50;10.80;;;;;;;-4.11;71.42;98944.53;1699076;84;20913;-65
2021/01/14 11:58:44;;;;;;;18.07;11.28;;;;;;;-4.09;71.16;98949.17;1699351;84;20951;-65
2021/01/14 12:01:13;;;;;;;16.42;11.05;;;;;;;-4.08;70.91;98945.77;1730710;82;21042;-65